Time;durP1;ratioP1;P1;durP2;ratioP2;P2;SDS_P1;SDS_P2;PMS_P1;PMS_P2;Temp;Humidity;BMP_temperature;BMP_pressure;BME280_temperature;BME280_humidity;BME280_pressure;Samples;Min_cycle;Max_cycle;Signal;HPM_P1;HPM_P2
2022/07/24 00:01:10;;;;;;;6.13;3.38;;;;;;;;;;6207587;23;20023;-52
2022/07/24 00:03:36;;;;;;;7.15;4.28;;;;;;;;;;6191284;23;20016;-50
2022/07/24 00:06:03;;;;;;;7.85;3.90;;;;;;;;;;6206066;23;20017;-52
2022/07/24 00:08:30;;;;;;;9.43;5.45;;;;;;;;;;6171290;23;20021;-51
2022/07/24 00:10:57;;;;;;;6.90;3.97;;;;;;;;;;6179882;23;20020;-50
2022/07/24 00:13:23;;;;;;;10.15;4.68;;;;;;;;;;6198420;23;20051;-53
2022/07/24 00:15:51;;;;;;;8.23;4.50;;;;;;;;;;6203199;23;20016;-50
2022/07/24 00:18:17;;;;;;;7.60;4.10;;;;;;;;;;6196007;23;20024;-50
2022/07/24 00:20:45;;;;;;;9.70;4.25;;;;;;;;;;6180616;23;20079;-48
2022/07/24 00:23:12;;;;;;;7.05;4.00;;;;;;;;;;6196650;23;20468;-50
2022/07/24 00:25:39;;;;;;;6.07;3.78;;;;;;;;;;6206969;23;20479;-49
2022/07/24 00:28:05;;;;;;;6.32;3.92;;;;;;;;;;6169445;23;20384;-51
2022/07/24 00:30:32;;;;;;;6.60;4.45;;;;;;;;;;6202837;23;20307;-49
2022/07/24 00:33:00;;;;;;;6.03;3.95;;;;;;;;;;6205640;23;20016;-49
2022/07/24 00:35:26;;;;;;;13.43;5.07;;;;;;;;;;6202174;23;20027;-54
2022/07/24 00:37:53;;;;;;;5.78;3.95;;;;;;;;;;6198470;23;20017;-53
2022/07/24 00:40:20;;;;;;;5.63;3.33;;;;;;;;;;6202427;23;20017;-49
2022/07/24 00:42:47;;;;;;;6.63;3.70;;;;;;;;;;6195377;23;20375;-52
2022/07/24 00:45:13;;;;;;;7.43;3.60;;;;;;;;;;6210726;23;20031;-52
2022/07/24 00:47:40;;;;;;;8.68;4.45;;;;;;;;;;6201112;23;20024;-51
2022/07/24 00:50:08;;;;;;;6.57;3.90;;;;;;;;;;6206890;23;20468;-50
2022/07/24 00:52:35;;;;;;;8.00;3.72;;;;;;;;;;6197337;23;20055;-48
2022/07/24 00:55:02;;;;;;;12.27;4.03;;;;;;;;;;6209211;23;20023;-52
2022/07/24 00:57:28;;;;;;;7.85;4.00;;;;;;;;;;6196271;23;20019;-52
2022/07/24 00:59:55;;;;;;;9.50;4.32;;;;;;;;;;6212344;23;20028;-50
2022/07/24 01:02:21;;;;;;;5.95;4.13;;;;;;;;;;6199800;23;20020;-49
2022/07/24 01:04:48;;;;;;;6.00;4.47;;;;;;;;;;6209509;23;20016;-52
2022/07/24 01:07:16;;;;;;;6.03;3.90;;;;;;;;;;6201522;23;20024;-52
2022/07/24 01:09:43;;;;;;;8.07;4.15;;;;;;;;;;6206284;23;20020;-51
2022/07/24 01:12:10;;;;;;;6.68;4.10;;;;;;;;;;6164432;23;20019;-51
2022/07/24 01:14:40;;;;;;;6.93;4.25;;;;;;;;;;6186366;23;20047;-53
2022/07/24 01:17:07;;;;;;;8.93;4.20;;;;;;;;;;6207703;23;20020;-51
2022/07/24 01:19:33;;;;;;;9.30;5.50;;;;;;;;;;6196240;23;20012;-52
2022/07/24 01:22:01;;;;;;;11.07;4.72;;;;;;;;;;6208794;23;20021;-51
2022/07/24 01:24:28;;;;;;;11.15;5.57;;;;;;;;;;6202097;23;20013;-51
2022/07/24 01:26:54;;;;;;;9.38;4.93;;;;;;;;;;6206915;23;20041;-49
2022/07/24 01:29:21;;;;;;;9.63;5.00;;;;;;;;;;6202377;23;20012;-52
2022/07/24 01:31:48;;;;;;;13.65;5.38;;;;;;;;;;6204880;23;20538;-49
2022/07/24 01:34:14;;;;;;;7.32;4.47;;;;;;;;;;6196346;23;20048;-53
2022/07/24 01:36:41;;;;;;;12.82;5.35;;;;;;;;;;6209603;23;20491;-48
2022/07/24 01:39:09;;;;;;;9.48;5.13;;;;;;;;;;6195203;23;20019;-53
2022/07/24 01:41:35;;;;;;;9.93;5.43;;;;;;;;;;6203246;23;20080;-52
2022/07/24 01:44:02;;;;;;;13.25;5.65;;;;;;;;;;6198252;23;20698;-53
2022/07/24 01:46:30;;;;;;;9.10;5.68;;;;;;;;;;6202397;23;20023;-53
2022/07/24 01:48:57;;;;;;;11.27;5.18;;;;;;;;;;6224685;23;20093;-50
2022/07/24 01:51:23;;;;;;;7.13;5.70;;;;;;;;;;6198156;23;20070;-54
2022/07/24 01:53:50;;;;;;;10.05;4.93;;;;;;;;;;6203639;23;20013;-52
2022/07/24 01:56:18;;;;;;;12.65;5.50;;;;;;;;;;6207336;23;20016;-48
2022/07/24 01:58:44;;;;;;;7.22;5.07;;;;;;;;;;6194684;23;20012;-51
2022/07/24 02:01:11;;;;;;;12.18;5.93;;;;;;;;;;6209239;23;20063;-51
2022/07/24 02:03:38;;;;;;;7.28;5.25;;;;;;;;;;6203031;23;20559;-51
2022/07/24 02:06:05;;;;;;;13.27;5.30;;;;;;;;;;6205606;23;20059;-53
2022/07/24 02:08:31;;;;;;;11.80;5.47;;;;;;;;;;6201191;23;20032;-54
2022/07/24 02:10:58;;;;;;;8.48;4.80;;;;;;;;;;6206490;23;20075;-52
2022/07/24 02:13:26;;;;;;;9.02;4.97;;;;;;;;;;6194094;23;20013;-51
2022/07/24 02:15:53;;;;;;;6.75;4.43;;;;;;;;;;6181616;23;20584;-48
2022/07/24 02:18:20;;;;;;;10.68;6.28;;;;;;;;;;6203240;23;20040;-54
2022/07/24 02:20:46;;;;;;;10.90;4.93;;;;;;;;;;6201884;23;20012;-52
2022/07/24 02:23:17;;;;;;;8.63;4.88;;;;;;;;;;6208745;23;20819;-51
2022/07/24 02:25:44;;;;;;;10.18;4.57;;;;;;;;;;6195822;23;20031;-54
2022/07/24 02:28:10;;;;;;;10.27;6.22;;;;;;;;;;6203781;23;20130;-51
2022/07/24 02:30:38;;;;;;;9.07;4.80;;;;;;;;;;6173031;23;20013;-51
2022/07/24 02:33:05;;;;;;;12.68;5.25;;;;;;;;;;6182949;23;20023;-51
2022/07/24 02:35:31;;;;;;;8.40;5.72;;;;;;;;;;6195659;23;20048;-52
2022/07/24 02:37:58;;;;;;;10.30;5.45;;;;;;;;;;6206044;23;20017;-51
2022/07/24 02:40:25;;;;;;;9.90;5.03;;;;;;;;;;6195788;23;20087;-53
2022/07/24 02:42:51;;;;;;;14.60;5.55;;;;;;;;;;6180650;23;20012;-50
2022/07/24 02:45:18;;;;;;;10.70;5.43;;;;;;;;;;6183675;23;20027;-50
2022/07/24 02:47:50;;;;;;;12.18;5.55;;;;;;;;;;6200583;23;20039;-54
2022/07/24 02:50:17;;;;;;;9.60;6.10;;;;;;;;;;6197125;22;20024;-49
2022/07/24 02:52:43;;;;;;;13.30;5.95;;;;;;;;;;6165583;23;20043;-54
2022/07/24 02:55:10;;;;;;;9.35;5.78;;;;;;;;;;6228179;23;20023;-51
2022/07/24 02:57:37;;;;;;;14.05;5.70;;;;;;;;;;6224978;23;20012;-50
2022/07/24 03:00:04;;;;;;;14.38;5.78;;;;;;;;;;6204769;23;20062;-52
2022/07/24 03:02:30;;;;;;;10.73;5.97;;;;;;;;;;6221398;23;20018;-52
2022/07/24 03:04:58;;;;;;;9.38;5.43;;;;;;;;;;6236431;23;20023;-49
2022/07/24 03:07:25;;;;;;;15.85;5.47;;;;;;;;;;6220443;23;20031;-49
2022/07/24 03:09:51;;;;;;;12.63;6.60;;;;;;;;;;6226941;23;20064;-48
2022/07/24 03:12:18;;;;;;;17.25;5.35;;;;;;;;;;6226823;23;20008;-50
2022/07/24 03:14:45;;;;;;;8.15;5.15;;;;;;;;;;6232941;23;20062;-52
2022/07/24 03:17:11;;;;;;;7.38;5.18;;;;;;;;;;6231468;23;20016;-48
2022/07/24 03:19:38;;;;;;;12.70;5.43;;;;;;;;;;6235173;23;20012;-52
2022/07/24 03:22:06;;;;;;;8.60;5.65;;;;;;;;;;6224968;23;20032;-52
2022/07/24 03:24:32;;;;;;;6.82;4.60;;;;;;;;;;6229143;23;20027;-55
2022/07/24 03:26:59;;;;;;;6.45;4.70;;;;;;;;;;6228861;23;20027;-51
2022/07/24 03:29:26;;;;;;;10.50;4.70;;;;;;;;;;6237972;23;20012;-51
2022/07/24 03:31:52;;;;;;;7.03;5.22;;;;;;;;;;6227969;23;20850;-49
2022/07/24 03:34:20;;;;;;;6.80;4.90;;;;;;;;;;6236080;23;20016;-50
2022/07/24 03:36:46;;;;;;;10.90;4.97;;;;;;;;;;6231706;23;20012;-52
2022/07/24 03:39:14;;;;;;;7.80;4.22;;;;;;;;;;6227087;23;20055;-54
2022/07/24 03:41:41;;;;;;;9.27;6.00;;;;;;;;;;6230562;23;20035;-54
2022/07/24 03:44:07;;;;;;;14.63;5.07;;;;;;;;;;6231338;23;20016;-52
2022/07/24 03:46:34;;;;;;;9.52;5.10;;;;;;;;;;6236772;23;20059;-52
2022/07/24 03:49:00;;;;;;;11.35;5.50;;;;;;;;;;6201096;23;20104;-52
2022/07/24 03:51:27;;;;;;;12.55;5.65;;;;;;;;;;6232427;23;20099;-51
2022/07/24 03:53:53;;;;;;;11.10;5.22;;;;;;;;;;6230574;23;20095;-52
2022/07/24 03:56:22;;;;;;;8.75;5.00;;;;;;;;;;6237825;23;20020;-53
2022/07/24 03:58:48;;;;;;;13.85;5.10;;;;;;;;;;6225472;23;20031;-49
2022/07/24 04:01:15;;;;;;;7.28;4.57;;;;;;;;;;6226695;23;20340;-52
2022/07/24 04:03:41;;;;;;;11.80;4.97;;;;;;;;;;6236268;23;20012;-51
2022/07/24 04:06:08;;;;;;;9.50;4.45;;;;;;;;;;6204222;23;20020;-53
2022/07/24 04:08:34;;;;;;;10.60;5.60;;;;;;;;;;6237360;23;20027;-52
2022/07/24 04:11:01;;;;;;;11.27;4.97;;;;;;;;;;6236323;23;20020;-49
2022/07/24 04:13:30;;;;;;;10.65;4.55;;;;;;;;;;6222947;23;20016;-50
2022/07/24 04:15:56;;;;;;;7.28;4.95;;;;;;;;;;6235123;23;20047;-52
2022/07/24 04:18:23;;;;;;;7.75;4.88;;;;;;;;;;6228885;23;20066;-51
2022/07/24 04:20:50;;;;;;;9.70;5.05;;;;;;;;;;6235043;23;20055;-51
2022/07/24 04:23:16;;;;;;;8.52;4.75;;;;;;;;;;6234629;23;20019;-51
2022/07/24 04:25:43;;;;;;;10.85;5.53;;;;;;;;;;6234490;23;20023;-52
2022/07/24 04:28:10;;;;;;;10.68;5.95;;;;;;;;;;6233985;23;20050;-50
2022/07/24 04:30:37;;;;;;;7.72;5.20;;;;;;;;;;6229295;23;20103;-49
2022/07/24 04:33:04;;;;;;;8.93;4.95;;;;;;;;;;6235865;23;20169;-50
2022/07/24 04:35:31;;;;;;;10.80;5.72;;;;;;;;;;6234754;23;20043;-54
2022/07/24 04:37:57;;;;;;;9.43;5.32;;;;;;;;;;6233550;23;20035;-52
2022/07/24 04:40:24;;;;;;;9.48;5.40;;;;;;;;;;6237458;23;20039;-51
2022/07/24 04:42:51;;;;;;;8.02;4.55;;;;;;;;;;6233401;23;20076;-52
2022/07/24 04:45:17;;;;;;;9.57;5.07;;;;;;;;;;6236185;23;20019;-54
2022/07/24 04:47:45;;;;;;;7.57;5.70;;;;;;;;;;6239336;23;20020;-54
2022/07/24 04:50:12;;;;;;;12.50;5.60;;;;;;;;;;6204437;23;20042;-53
2022/07/24 04:52:38;;;;;;;11.55;5.53;;;;;;;;;;6236919;22;20016;-53
2022/07/24 04:55:05;;;;;;;14.98;6.85;;;;;;;;;;6229760;22;20020;-52
2022/07/24 04:57:32;;;;;;;12.25;5.47;;;;;;;;;;6236541;23;20023;-53
2022/07/24 04:59:58;;;;;;;7.32;6.00;;;;;;;;;;6230160;23;20019;-53
2022/07/24 05:02:25;;;;;;;6.72;5.65;;;;;;;;;;6233213;22;20020;-53
2022/07/24 05:04:53;;;;;;;8.98;5.20;;;;;;;;;;6231136;22;20012;-50
2022/07/24 05:07:20;;;;;;;11.70;5.78;;;;;;;;;;6237877;22;20136;-53
2022/07/24 05:09:47;;;;;;;8.40;5.35;;;;;;;;;;6233609;23;20020;-50
2022/07/24 05:12:14;;;;;;;11.70;5.10;;;;;;;;;;6236679;22;20020;-52
2022/07/24 05:14:40;;;;;;;11.63;4.90;;;;;;;;;;6230593;22;20043;-53
2022/07/24 05:17:07;;;;;;;12.15;5.57;;;;;;;;;;6240449;22;20324;-49
2022/07/24 05:19:33;;;;;;;10.57;4.78;;;;;;;;;;6232393;23;20016;-52
2022/07/24 05:22:01;;;;;;;11.00;4.97;;;;;;;;;;6236610;22;20013;-53
2022/07/24 05:24:28;;;;;;;11.70;5.22;;;;;;;;;;6230691;22;20012;-52
2022/07/24 05:26:55;;;;;;;9.15;4.97;;;;;;;;;;6242310;22;20016;-54
2022/07/24 05:29:21;;;;;;;13.00;4.85;;;;;;;;;;6235383;22;20079;-50
2022/07/24 05:31:49;;;;;;;8.32;5.38;;;;;;;;;;6237139;22;20477;-53
2022/07/24 05:34:15;;;;;;;15.75;5.47;;;;;;;;;;6217622;23;20410;-54
2022/07/24 05:36:42;;;;;;;6.90;5.07;;;;;;;;;;6233444;22;20012;-52
2022/07/24 05:39:10;;;;;;;10.02;5.40;;;;;;;;;;6232571;22;20199;-53
2022/07/24 05:41:36;;;;;;;8.25;5.22;;;;;;;;;;6231121;23;20013;-53
2022/07/24 05:44:02;;;;;;;6.22;4.35;;;;;;;;;;6234606;22;20012;-54
2022/07/24 05:46:29;;;;;;;8.88;4.60;;;;;;;;;;6238697;22;20292;-51
2022/07/24 05:48:56;;;;;;;7.95;4.45;;;;;;;;;;6230066;23;20024;-52
2022/07/24 05:51:22;;;;;;;8.20;5.25;;;;;;;;;;6230581;22;20012;-54
2022/07/24 05:53:49;;;;;;;9.35;5.18;;;;;;;;;;6228101;23;20020;-55
2022/07/24 05:56:17;;;;;;;10.32;4.95;;;;;;;;;;6235134;23;20062;-54
2022/07/24 05:58:43;;;;;;;12.15;5.20;;;;;;;;;;6222785;23;20067;-50
2022/07/24 06:01:10;;;;;;;9.15;4.93;;;;;;;;;;6233494;23;20020;-54
2022/07/24 06:03:37;;;;;;;7.28;4.32;;;;;;;;;;6233443;23;20023;-53
2022/07/24 06:06:04;;;;;;;10.55;5.10;;;;;;;;;;6230542;23;20016;-53
2022/07/24 06:08:31;;;;;;;8.55;5.00;;;;;;;;;;6235070;23;20055;-54
2022/07/24 06:10:58;;;;;;;9.38;4.85;;;;;;;;;;6237039;23;20016;-55
2022/07/24 06:13:26;;;;;;;9.60;5.05;;;;;;;;;;6224936;23;20016;-54
2022/07/24 06:15:52;;;;;;;11.20;4.60;;;;;;;;;;6237518;23;20019;-55
2022/07/24 06:18:20;;;;;;;6.68;5.05;;;;;;;;;;6232724;23;20050;-51
2022/07/24 06:20:46;;;;;;;6.22;4.47;;;;;;;;;;6210209;23;20318;-52
2022/07/24 06:23:13;;;;;;;8.27;4.85;;;;;;;;;;6230257;23;20083;-55
2022/07/24 06:25:39;;;;;;;6.22;3.92;;;;;;;;;;6235488;23;20271;-54
2022/07/24 06:28:06;;;;;;;7.63;4.13;;;;;;;;;;6230742;23;20038;-52
2022/07/24 06:30:34;;;;;;;10.50;4.03;;;;;;;;;;6239651;23;20023;-55
2022/07/24 06:33:00;;;;;;;6.60;4.07;;;;;;;;;;6231796;23;20012;-51
2022/07/24 06:35:27;;;;;;;9.13;4.28;;;;;;;;;;6209185;23;20019;-55
2022/07/24 06:37:55;;;;;;;7.78;3.75;;;;;;;;;;6230083;23;20016;-52
2022/07/24 06:40:22;;;;;;;5.40;3.15;;;;;;;;;;6237417;23;20388;-52
2022/07/24 06:42:49;;;;;;;6.05;3.50;;;;;;;;;;6229268;23;20016;-52
2022/07/24 06:45:17;;;;;;;3.90;3.50;;;;;;;;;;6235852;23;20018;-51
2022/07/24 06:47:45;;;;;;;7.97;3.53;;;;;;;;;;6232869;23;20073;-53
2022/07/24 06:50:13;;;;;;;3.70;2.58;;;;;;;;;;6232317;23;20020;-51
2022/07/24 06:52:40;;;;;;;5.65;3.40;;;;;;;;;;6232076;23;20430;-52
2022/07/24 06:55:07;;;;;;;6.85;3.50;;;;;;;;;;6227549;23;20012;-52
2022/07/24 06:57:34;;;;;;;7.13;3.83;;;;;;;;;;6234458;23;20016;-50
2022/07/24 07:00:00;;;;;;;4.63;3.17;;;;;;;;;;6233296;23;20027;-52
2022/07/24 07:02:27;;;;;;;7.15;3.58;;;;;;;;;;6222284;23;20027;-53
2022/07/24 07:04:55;;;;;;;4.03;3.03;;;;;;;;;;6232057;23;20043;-52
2022/07/24 07:07:26;;;;;;;3.50;3.20;;;;;;;;;;6233178;23;20039;-49
2022/07/24 07:09:52;;;;;;;6.20;2.95;;;;;;;;;;6236180;23;20024;-52
2022/07/24 07:12:20;;;;;;;3.67;3.00;;;;;;;;;;6232160;23;20169;-52
2022/07/24 07:14:46;;;;;;;7.13;3.45;;;;;;;;;;6220925;23;20012;-50
2022/07/24 07:17:13;;;;;;;6.13;3.65;;;;;;;;;;6240981;23;20043;-53
2022/07/24 07:19:39;;;;;;;5.43;2.70;;;;;;;;;;6226104;23;20042;-52
2022/07/24 07:22:07;;;;;;;8.18;2.78;;;;;;;;;;6240136;23;20035;-51
2022/07/24 07:24:34;;;;;;;7.10;2.90;;;;;;;;;;6228224;23;20062;-53
2022/07/24 07:27:00;;;;;;;7.03;2.65;;;;;;;;;;6239210;23;20016;-53
2022/07/24 07:29:27;;;;;;;5.10;2.45;;;;;;;;;;6226968;23;20433;-50
2022/07/24 07:31:53;;;;;;;6.60;3.25;;;;;;;;;;6238186;23;20020;-48
2022/07/24 07:34:20;;;;;;;6.03;3.13;;;;;;;;;;6233991;23;20016;-55
2022/07/24 07:36:46;;;;;;;5.85;2.60;;;;;;;;;;6209599;23;20012;-53
2022/07/24 07:39:14;;;;;;;7.75;3.08;;;;;;;;;;6223279;23;20451;-53
2022/07/24 07:41:41;;;;;;;8.35;2.92;;;;;;;;;;6238468;23;20020;-51
2022/07/24 07:44:08;;;;;;;5.30;2.70;;;;;;;;;;6220304;23;20490;-53
2022/07/24 07:46:34;;;;;;;4.88;2.95;;;;;;;;;;6233142;23;20074;-49
2022/07/24 07:49:01;;;;;;;7.28;3.40;;;;;;;;;;6228022;23;20071;-53
2022/07/24 07:51:27;;;;;;;5.90;3.08;;;;;;;;;;6233623;23;20555;-52
2022/07/24 07:53:54;;;;;;;4.65;2.80;;;;;;;;;;6228179;23;20019;-50
2022/07/24 07:56:22;;;;;;;9.93;3.00;;;;;;;;;;6231544;23;20012;-52
2022/07/24 07:58:49;;;;;;;3.35;2.63;;;;;;;;;;6226801;23;20123;-52
2022/07/24 08:01:15;;;;;;;7.38;3.08;;;;;;;;;;6232062;23;20309;-52
2022/07/24 08:03:41;;;;;;;6.75;2.97;;;;;;;;;;6205206;23;20074;-50
2022/07/24 08:06:08;;;;;;;5.75;2.92;;;;;;;;;;6230793;23;20019;-53
2022/07/24 08:08:35;;;;;;;7.35;3.20;;;;;;;;;;6227051;23;20016;-53
2022/07/24 08:11:01;;;;;;;6.22;3.13;;;;;;;;;;6231347;23;20031;-53
2022/07/24 08:13:29;;;;;;;4.78;3.47;;;;;;;;;;6233542;23;20078;-53
2022/07/24 08:15:56;;;;;;;10.25;3.33;;;;;;;;;;6230081;23;20016;-52
2022/07/24 08:18:22;;;;;;;7.45;2.55;;;;;;;;;;6234654;23;20017;-54
2022/07/24 08:20:49;;;;;;;3.97;3.20;;;;;;;;;;6233453;23;20016;-51
2022/07/24 08:23:15;;;;;;;3.45;2.55;;;;;;;;;;6228915;23;20016;-53
2022/07/24 08:25:42;;;;;;;4.43;2.97;;;;;;;;;;6232077;23;20020;-53
2022/07/24 08:28:08;;;;;;;3.90;2.60;;;;;;;;;;6234026;23;20023;-55
2022/07/24 08:30:36;;;;;;;5.75;3.35;;;;;;;;;;6223103;23;20020;-51
2022/07/24 08:33:03;;;;;;;7.63;2.80;;;;;;;;;;6238107;23;20101;-51
2022/07/24 08:35:29;;;;;;;9.55;3.28;;;;;;;;;;6205210;23;20074;-52
2022/07/24 08:37:56;;;;;;;6.18;3.55;;;;;;;;;;6238850;23;20268;-49
2022/07/24 08:40:23;;;;;;;4.40;3.53;;;;;;;;;;6229460;23;20012;-51
2022/07/24 08:42:49;;;;;;;3.83;2.83;;;;;;;;;;6239759;23;20019;-49
2022/07/24 08:45:16;;;;;;;4.70;3.38;;;;;;;;;;6228327;23;20062;-51
2022/07/24 08:47:45;;;;;;;3.35;1.95;;;;;;;;;;6231988;23;20062;-51
2022/07/24 08:50:12;;;;;;;3.03;2.20;;;;;;;;;;6222463;23;20020;-51
2022/07/24 08:52:39;;;;;;;3.65;2.35;;;;;;;;;;6229110;23;20095;-48
2022/07/24 08:55:10;;;;;;;4.55;2.08;;;;;;;;;;6209462;23;20039;-52
2022/07/24 08:57:36;;;;;;;4.47;2.10;;;;;;;;;;6233936;23;20026;-53
2022/07/24 09:00:04;;;;;;;4.15;2.20;;;;;;;;;;6235301;23;20012;-51
2022/07/24 09:02:30;;;;;;;2.72;1.98;;;;;;;;;;6233222;23;20018;-52
2022/07/24 09:05:02;;;;;;;2.42;1.95;;;;;;;;;;6232909;23;20020;-53
2022/07/24 09:07:30;;;;;;;4.82;1.92;;;;;;;;;;6230496;23;20019;-52
2022/07/24 09:10:00;;;;;;;3.78;2.42;;;;;;;;;;6232620;23;20059;-55
2022/07/24 09:12:31;;;;;;;3.35;2.17;;;;;;;;;;6230476;23;20020;-53
2022/07/24 09:14:57;;;;;;;2.45;1.70;;;;;;;;;;6226673;23;20507;-49
2022/07/24 09:17:24;;;;;;;2.92;1.95;;;;;;;;;;6236014;23;20020;-53
2022/07/24 09:19:51;;;;;;;2.95;1.98;;;;;;;;;;6222984;23;20023;-53
2022/07/24 09:22:26;;;;;;;2.20;2.00;;;;;;;;;;6234207;23;20016;-48
2022/07/24 09:25:04;;;;;;;4.85;2.83;;;;;;;;;;6231197;23;20016;-48
2022/07/24 09:27:31;;;;;;;3.63;2.42;;;;;;;;;;6203087;23;20020;-50
2022/07/24 09:29:58;;;;;;;2.95;2.10;;;;;;;;;;6227584;23;20055;-52
2022/07/24 09:32:25;;;;;;;7.93;2.90;;;;;;;;;;6230486;23;20016;-50
2022/07/24 09:34:52;;;;;;;5.90;3.28;;;;;;;;;;6225556;23;20043;-49
2022/07/24 09:37:20;;;;;;;8.05;3.58;;;;;;;;;;6203895;23;20023;-51
2022/07/24 09:39:48;;;;;;;4.60;3.17;;;;;;;;;;6233108;23;20357;-50
2022/07/24 09:42:15;;;;;;;10.23;3.47;;;;;;;;;;6230822;23;20013;-53
2022/07/24 09:44:41;;;;;;;6.32;2.70;;;;;;;;;;6230100;23;20023;-49
2022/07/24 09:47:09;;;;;;;5.15;2.78;;;;;;;;;;6228068;23;20019;-51
2022/07/24 09:49:36;;;;;;;3.72;2.22;;;;;;;;;;6237216;23;20024;-51
2022/07/24 09:52:10;;;;;;;3.63;2.38;;;;;;;;;;6225491;23;20362;-53
2022/07/24 09:54:37;;;;;;;3.85;2.45;;;;;;;;;;6199657;23;20012;-50
2022/07/24 09:57:17;;;;;;;6.82;3.00;;;;;;;;;;6224746;23;20019;-52
2022/07/24 09:59:46;;;;;;;6.88;2.53;;;;;;;;;;6230948;23;20012;-50
2022/07/24 10:02:13;;;;;;;4.05;2.75;;;;;;;;;;6234931;23;20466;-53
2022/07/24 10:04:42;;;;;;;7.57;2.92;;;;;;;;;;6226821;23;20431;-52
2022/07/24 10:07:10;;;;;;;3.60;2.50;;;;;;;;;;6230554;23;20047;-53
2022/07/24 10:09:36;;;;;;;6.05;2.70;;;;;;;;;;6216271;23;20018;-53
2022/07/24 10:12:04;;;;;;;8.30;2.97;;;;;;;;;;6238099;23;20012;-49
2022/07/24 10:14:32;;;;;;;4.22;2.58;;;;;;;;;;6223862;23;20023;-53
2022/07/24 10:17:04;;;;;;;3.60;2.42;;;;;;;;;;6222487;23;20023;-53
2022/07/24 10:19:38;;;;;;;5.53;2.40;;;;;;;;;;6220080;23;20023;-56
2022/07/24 10:22:09;;;;;;;3.83;2.78;;;;;;;;;;6233571;23;20022;-53
2022/07/24 10:24:57;;;;;;;5.25;2.55;;;;;;;;;;6221188;23;20015;-54
2022/07/24 10:27:25;;;;;;;4.15;2.40;;;;;;;;;;6227165;23;20465;-54
2022/07/24 10:29:55;;;;;;;4.22;2.33;;;;;;;;;;6221540;23;20020;-52
2022/07/24 10:32:22;;;;;;;4.68;2.40;;;;;;;;;;6226225;23;20076;-51
2022/07/24 10:34:51;;;;;;;5.38;2.50;;;;;;;;;;6225353;23;20016;-55
2022/07/24 10:37:19;;;;;;;;;;;;;;;;;;6226699;23;20020;-54
2022/07/24 10:39:48;;;;;;;4.45;2.20;;;;;;;;;;6228453;23;19942;-55
2022/07/24 10:42:15;;;;;;;4.65;2.10;;;;;;;;;;6221061;23;20016;-55
2022/07/24 10:44:44;;;;;;;5.65;2.25;;;;;;;;;;6227141;23;20027;-52
2022/07/24 10:47:13;;;;;;;4.80;1.60;;;;;;;;;;6222573;23;20012;-56
2022/07/24 10:49:40;;;;;;;;;;;;;;;;;;6230044;23;20038;-54
2022/07/24 10:52:06;;;;;;;6.45;2.30;;;;;;;;;;6224161;23;19916;-55
2022/07/24 10:54:33;;;;;;;3.55;2.10;;;;;;;;;;6229118;23;20031;-55
2022/07/24 10:56:59;;;;;;;2.78;1.67;;;;;;;;;;6192795;23;20027;-54
2022/07/24 10:59:33;;;;;;;3.78;1.88;;;;;;;;;;6231370;23;20043;-52
2022/07/24 11:02:23;;;;;;;3.58;2.03;;;;;;;;;;6229116;23;20069;-54
2022/07/24 11:05:13;;;;;;;5.00;1.83;;;;;;;;;;6232680;23;20434;-51
2022/07/24 11:08:04;;;;;;;5.45;2.00;;;;;;;;;;6199967;23;20445;-54
2022/07/24 11:10:45;;;;;;;4.80;1.77;;;;;;;;;;6224964;23;20058;-50
2022/07/24 11:13:26;;;;;;;3.38;1.92;;;;;;;;;;6228755;23;20043;-53
2022/07/24 11:16:07;;;;;;;3.90;1.92;;;;;;;;;;6204325;23;20509;-50
2022/07/24 11:18:34;;;;;;;2.97;2.00;;;;;;;;;;6192953;23;20444;-52
2022/07/24 11:21:01;;;;;;;3.40;2.03;;;;;;;;;;6229212;23;20016;-53
2022/07/24 11:23:29;;;;;;;4.68;1.85;;;;;;;;;;6222712;23;20021;-51
2022/07/24 11:26:10;;;;;;;2.80;1.80;;;;;;;;;;6204539;23;20026;-53
2022/07/24 11:28:37;;;;;;;4.85;1.92;;;;;;;;;;6225698;23;20016;-54
2022/07/24 11:31:05;;;;;;;3.95;1.95;;;;;;;;;;6234488;23;20020;-53
2022/07/24 11:33:32;;;;;;;2.72;2.20;;;;;;;;;;6231170;23;20016;-52
2022/07/24 11:36:00;;;;;;;3.97;1.85;;;;;;;;;;6228481;23;20020;-52
2022/07/24 11:38:30;;;;;;;2.67;2.03;;;;;;;;;;6233312;23;20384;-50
2022/07/24 11:41:05;;;;;;;2.38;2.03;;;;;;;;;;6195954;23;20027;-52
2022/07/24 11:43:34;;;;;;;2.75;1.70;;;;;;;;;;6235716;23;20464;-51
2022/07/24 11:46:00;;;;;;;2.05;1.70;;;;;;;;;;6226547;23;20383;-54
2022/07/24 11:48:27;;;;;;;5.25;2.00;;;;;;;;;;6228540;23;20016;-52
2022/07/24 11:51:03;;;;;;;3.58;1.75;;;;;;;;;;6229104;23;20024;-51
2022/07/24 11:53:31;;;;;;;2.50;1.67;;;;;;;;;;6204541;23;20043;-51
2022/07/24 11:56:02;;;;;;;2.80;1.70;;;;;;;;;;6232197;23;20024;-54
2022/07/24 11:58:29;;;;;;;1.70;1.38;;;;;;;;;;6231599;23;20012;-52
2022/07/24 12:00:56;;;;;;;1.90;1.77;;;;;;;;;;6213310;23;20418;-52
2022/07/24 12:03:25;;;;;;;5.05;2.38;;;;;;;;;;6234791;23;20023;-51
2022/07/24 12:05:51;;;;;;;2.25;1.77;;;;;;;;;;6228977;23;20739;-50
2022/07/24 12:08:21;;;;;;;5.50;1.65;;;;;;;;;;6232032;23;20047;-47
2022/07/24 12:10:55;;;;;;;2.22;1.80;;;;;;;;;;6226682;23;20410;-50
2022/07/24 12:13:21;;;;;;;2.13;1.75;;;;;;;;;;6222352;23;20462;-50
2022/07/24 12:15:48;;;;;;;5.03;1.55;;;;;;;;;;6231430;23;20092;-50
2022/07/24 12:18:15;;;;;;;3.03;1.90;;;;;;;;;;6219044;23;20027;-54
2022/07/24 12:20:42;;;;;;;2.00;1.73;;;;;;;;;;6230636;23;20023;-53
2022/07/24 12:23:10;;;;;;;5.32;1.80;;;;;;;;;;6226833;23;20040;-53
2022/07/24 12:25:37;;;;;;;3.42;1.88;;;;;;;;;;6226224;23;20019;-52
2022/07/24 12:28:06;;;;;;;3.60;1.77;;;;;;;;;;6221504;23;20023;-56
2022/07/24 12:30:34;;;;;;;3.38;1.90;;;;;;;;;;6213161;23;20390;-52
2022/07/24 12:33:01;;;;;;;1.80;1.70;;;;;;;;;;6222642;23;20096;-51
2022/07/24 12:35:29;;;;;;;4.25;2.00;;;;;;;;;;6230117;23;20016;-51
2022/07/24 12:37:56;;;;;;;4.18;1.70;;;;;;;;;;6221813;23;20012;-50
2022/07/24 12:40:25;;;;;;;4.00;2.05;;;;;;;;;;6229866;23;20062;-49
2022/07/24 12:42:56;;;;;;;3.63;1.80;;;;;;;;;;6220934;23;20095;-50
2022/07/24 12:45:25;;;;;;;2.72;1.67;;;;;;;;;;6222378;23;20091;-51
2022/07/24 12:48:11;;;;;;;2.30;1.70;;;;;;;;;;6222266;23;20070;-54
2022/07/24 12:50:38;;;;;;;3.20;1.83;;;;;;;;;;6153119;23;1289519;-54
2022/07/24 12:53:06;;;;;;;5.07;2.15;;;;;;;;;;6232861;22;20352;-51
2022/07/24 12:55:33;;;;;;;4.25;1.83;;;;;;;;;;6222857;22;20016;-53
2022/07/24 12:58:00;;;;;;;3.22;1.70;;;;;;;;;;6227283;23;20329;-50
2022/07/24 13:00:28;;;;;;;2.63;1.50;;;;;;;;;;6232935;23;20027;-53
2022/07/24 13:02:55;;;;;;;4.00;2.67;;;;;;;;;;6224738;22;20072;-54
2022/07/24 13:05:36;;;;;;;2.85;1.73;;;;;;;;;;6231364;22;20032;-53
2022/07/24 13:08:03;;;;;;;1.95;1.70;;;;;;;;;;6219541;22;20111;-54
2022/07/24 13:10:29;;;;;;;3.88;1.77;;;;;;;;;;6227481;22;20027;-53
2022/07/24 13:12:56;;;;;;;2.88;1.58;;;;;;;;;;6227850;22;20031;-52
2022/07/24 13:15:22;;;;;;;3.30;2.00;;;;;;;;;;6226466;23;20051;-52
2022/07/24 13:17:52;;;;;;;6.70;1.77;;;;;;;;;;6230953;22;20072;-54
2022/07/24 13:20:19;;;;;;;5.43;1.63;;;;;;;;;;6224174;23;20020;-55
2022/07/24 13:22:47;;;;;;;6.13;1.67;;;;;;;;;;6227442;23;20016;-54
2022/07/24 13:25:14;;;;;;;3.42;1.63;;;;;;;;;;6227494;23;20012;-54
2022/07/24 13:27:40;;;;;;;2.22;1.65;;;;;;;;;;6226554;22;20022;-54
2022/07/24 13:30:07;;;;;;;4.15;1.33;;;;;;;;;;6231448;22;20016;-52
2022/07/24 13:32:34;;;;;;;2.05;1.83;;;;;;;;;;6223429;22;20027;-54
2022/07/24 13:35:02;;;;;;;11.18;2.75;;;;;;;;;;6226576;22;20012;-55
2022/07/24 13:37:28;;;;;;;8.02;2.92;;;;;;;;;;6221450;22;20012;-52
2022/07/24 13:39:55;;;;;;;5.22;3.40;;;;;;;;;;6234234;22;20012;-52
2022/07/24 13:42:21;;;;;;;3.53;2.53;;;;;;;;;;6230512;22;20084;-50
2022/07/24 13:44:48;;;;;;;3.10;1.67;;;;;;;;;;6226991;22;20043;-52
2022/07/24 13:47:14;;;;;;;4.40;1.92;;;;;;;;;;6223608;22;20017;-52
2022/07/24 13:49:41;;;;;;;4.20;1.65;;;;;;;;;;6227040;22;20012;-53
2022/07/24 13:52:09;;;;;;;3.45;2.15;;;;;;;;;;6198958;23;20020;-50
2022/07/24 13:54:35;;;;;;;6.28;1.98;;;;;;;;;;6227122;23;20016;-54
2022/07/24 13:57:04;;;;;;;4.80;2.00;;;;;;;;;;6228477;23;20459;-52
2022/07/24 13:59:30;;;;;;;5.53;2.90;;;;;;;;;;6219594;23;20020;-54
2022/07/24 14:01:57;;;;;;;2.40;1.58;;;;;;;;;;6201897;23;20020;-55
2022/07/24 14:04:23;;;;;;;2.47;1.50;;;;;;;;;;6223792;23;20016;-55
2022/07/24 14:06:50;;;;;;;3.38;1.50;;;;;;;;;;6226178;23;20123;-56
2022/07/24 14:09:19;;;;;;;3.97;1.23;;;;;;;;;;6228862;23;20075;-52
2022/07/24 14:11:45;;;;;;;2.28;2.00;;;;;;;;;;6194473;23;20409;-54
2022/07/24 14:14:12;;;;;;;3.25;1.58;;;;;;;;;;6201953;23;20020;-56
2022/07/24 14:16:39;;;;;;;2.53;2.15;;;;;;;;;;6222367;23;20039;-54
2022/07/24 14:19:05;;;;;;;4.25;1.92;;;;;;;;;;6225079;23;20020;-57
2022/07/24 14:21:33;;;;;;;5.03;1.50;;;;;;;;;;6224279;23;20020;-55
2022/07/24 14:24:00;;;;;;;4.22;1.77;;;;;;;;;;6233490;23;20107;-54
2022/07/24 14:26:28;;;;;;;4.63;1.75;;;;;;;;;;6217685;23;20494;-56
2022/07/24 14:28:54;;;;;;;4.47;1.60;;;;;;;;;;6228918;23;20027;-55
2022/07/24 14:31:21;;;;;;;4.22;1.80;;;;;;;;;;6223679;23;20087;-56
2022/07/24 14:33:47;;;;;;;2.65;1.70;;;;;;;;;;6235286;23;20022;-53
2022/07/24 14:36:14;;;;;;;5.43;1.63;;;;;;;;;;6221872;23;20016;-55
2022/07/24 14:38:40;;;;;;;4.18;1.35;;;;;;;;;;6229954;23;20331;-56
2022/07/24 14:41:07;;;;;;;1.85;1.35;;;;;;;;;;6213642;23;20243;-54
2022/07/24 14:43:35;;;;;;;3.05;1.42;;;;;;;;;;6232743;23;20049;-53